Time;durP1;ratioP1;P1;durP2;ratioP2;P2;SDS_P1;SDS_P2;PMS_P1;PMS_P2;Temp;Humidity;BMP_temperature;BMP_pressure;BME280_temperature;BME280_humidity;BME280_pressure;Samples;Min_cycle;Max_cycle;Signal;HPM_P1;HPM_P2
2023/04/10 00:02:15;;;;;;;12.90;11.90;;;;;;;7.21;68.49;92878.41;5110841;28;20227;-72
2023/04/10 00:04:40;;;;;;;11.43;10.63;;;;;;;7.44;67.68;92898.03;5110171;28;20235;-72
2023/04/10 00:07:06;;;;;;;11.60;10.80;;;;;;;7.48;68.33;92899.88;5111249;28;20183;-73
2023/04/10 00:09:31;;;;;;;13.03;12.13;;;;;;;7.32;68.80;92895.63;5109417;28;20184;-73
2023/04/10 00:11:57;;;;;;;11.97;11.27;;;;;;;7.15;68.77;92876.03;5110204;28;20192;-73
2023/04/10 00:14:23;;;;;;;12.00;11.10;;;;;;;7.10;68.50;92876.00;5109130;28;20176;-73
2023/04/10 00:16:49;;;;;;;12.23;11.37;;;;;;;7.21;69.07;92886.19;5110631;28;20200;-72
2023/04/10 00:19:15;;;;;;;11.17;10.37;;;;;;;7.11;68.19;92874.97;5110269;28;20184;-73
2023/04/10 00:21:41;;;;;;;11.17;10.37;;;;;;;7.27;68.14;92882.59;5110068;28;20220;-72
2023/04/10 00:24:07;;;;;;;10.97;10.33;;;;;;;7.22;67.68;92882.56;5109843;28;20209;-73
2023/04/10 00:26:32;;;;;;;12.80;11.90;;;;;;;7.20;67.36;92873.47;5109429;28;20215;-73
2023/04/10 00:28:58;;;;;;;12.70;11.80;;;;;;;7.22;67.18;92863.63;5109714;28;20229;-73
2023/04/10 00:31:23;;;;;;;12.17;11.27;;;;;;;7.35;66.65;92884.72;5109862;28;20245;-73
2023/04/10 00:33:49;;;;;;;12.63;11.73;;;;;;;7.27;66.29;92863.66;5109242;28;20176;-73
2023/04/10 00:36:15;;;;;;;11.73;10.93;;;;;;;7.28;66.93;92862.63;5108933;28;20220;-72
2023/04/10 00:38:40;;;;;;;12.33;11.47;;;;;;;7.22;67.70;92882.56;5109502;28;20188;-73
2023/04/10 00:41:06;;;;;;;12.33;11.30;;;;;;;7.25;67.59;92870.91;5109440;28;20275;-73
2023/04/10 00:43:31;;;;;;;12.07;11.27;;;;;;;7.22;67.30;92861.78;5108336;28;20180;-73
2023/04/10 00:45:57;;;;;;;12.47;11.57;;;;;;;7.03;68.32;92852.09;5108932;28;20216;-73
2023/04/10 00:48:23;;;;;;;12.43;11.63;;;;;;;7.15;66.84;92869.03;5109895;28;20164;-73
2023/04/10 00:50:49;;;;;;;12.47;11.20;;;;;;;7.18;66.03;92871.13;5108946;28;20222;-72
2023/04/10 00:53:14;;;;;;;11.77;10.97;;;;;;;7.18;66.86;92878.13;5109602;28;20220;-73
2023/04/10 00:55:40;;;;;;;12.70;11.87;;;;;;;7.27;66.16;92869.63;5110166;28;20228;-72
2023/04/10 00:58:05;;;;;;;11.33;10.43;;;;;;;7.44;66.07;92874.66;5109374;28;20279;-73
2023/04/10 01:00:31;;;;;;;10.20;9.60;;;;;;;7.34;66.17;92865.00;5108913;28;20226;-72
2023/04/10 01:02:59;;;;;;;11.77;10.97;;;;;;;7.30;65.86;92861.31;5110368;28;20184;-72
2023/04/10 01:05:33;;;;;;;12.13;11.23;;;;;;;7.26;66.41;92867.28;5114238;28;20211;-72
2023/04/10 01:08:13;;;;;;;11.70;10.93;;;;;;;7.10;67.17;92848.22;5112628;28;20192;-72
2023/04/10 01:11:04;;;;;;;10.60;9.97;;;;;;;7.03;67.41;92845.09;5113707;28;20216;-72
2023/04/10 01:13:34;;;;;;;11.20;10.50;;;;;;;7.17;67.49;92861.78;5113762;28;20192;-72
2023/04/10 01:16:22;;;;;;;11.50;10.87;;;;;;;6.92;68.23;92838.28;5113114;28;20250;-73
2023/04/10 01:19:07;;;;;;;13.17;12.27;;;;;;;7.00;68.46;92855.97;5112595;28;20180;-72
2023/04/10 01:21:36;;;;;;;12.87;12.03;;;;;;;6.97;69.16;92855.69;5112548;28;20287;-73
2023/04/10 01:24:30;;;;;;;11.67;10.97;;;;;;;6.90;69.97;92855.09;5113093;28;20188;-73
2023/04/10 01:27:11;;;;;;;11.60;10.90;;;;;;;6.88;70.58;92860.53;5092822;28;20243;-72
2023/04/10 01:29:45;;;;;;;12.40;11.60;;;;;;;6.83;70.68;92854.56;5094359;28;20183;-73
2023/04/10 01:32:13;;;;;;;11.67;11.07;;;;;;;6.90;70.57;92845.53;5111740;28;20180;-73
2023/04/10 01:35:02;;;;;;;11.80;11.10;;;;;;;6.82;71.00;92840.78;5112026;28;20223;-74
2023/04/10 01:37:30;;;;;;;12.43;11.53;;;;;;;6.94;71.48;92838.78;5111537;28;20211;-72
2023/04/10 01:40:02;;;;;;;11.13;10.47;;;;;;;6.98;71.14;92834.66;5112308;28;20224;-72
2023/04/10 01:42:31;;;;;;;12.03;11.23;;;;;;;7.12;71.78;92853.97;5112522;28;20215;-73
2023/04/10 01:44:58;;;;;;;12.03;11.23;;;;;;;7.03;71.86;92845.09;5105780;28;20235;-73
2023/04/10 01:47:25;;;;;;;11.43;10.70;;;;;;;7.03;73.00;92850.28;5092171;28;20177;-73
2023/04/10 01:49:52;;;;;;;12.23;11.43;;;;;;;7.03;73.05;92855.47;5093834;28;20236;-72
2023/04/10 01:52:19;;;;;;;11.83;11.03;;;;;;;7.11;73.64;92856.81;5113785;28;20246;-72
2023/04/10 01:54:47;;;;;;;11.53;10.83;;;;;;;6.86;73.69;92820.31;5112384;28;20231;-73
2023/04/10 01:57:14;;;;;;;11.30;10.53;;;;;;;7.07;74.52;92851.34;5112740;28;20223;-72
2023/04/10 01:59:40;;;;;;;11.97;11.17;;;;;;;7.10;74.14;92856.03;5111735;28;20238;-73
2023/04/10 02:02:06;;;;;;;11.80;11.00;;;;;;;7.17;74.29;92851.41;5112627;28;20307;-73
2023/04/10 02:04:32;;;;;;;12.40;11.43;;;;;;;7.16;74.24;92852.41;5110429;28;20176;-74
2023/04/10 02:07:07;;;;;;;11.90;11.03;;;;;;;7.11;74.35;92854.22;5112401;28;20196;-74
2023/04/10 02:10:03;;;;;;;12.17;11.40;;;;;;;7.25;75.25;92853.53;5110421;27;20187;-74
2023/04/10 02:12:32;;;;;;;10.83;10.10;;;;;;;7.31;75.13;92852.50;5111502;28;20184;-74
2023/04/10 02:15:05;;;;;;;10.57;9.97;;;;;;;7.35;74.76;92842.38;5111278;28;20223;-70
2023/04/10 02:17:32;;;;;;;11.30;10.60;;;;;;;7.35;74.53;92835.38;5111007;28;20207;-71
2023/04/10 02:19:58;;;;;;;12.50;11.43;;;;;;;7.33;75.87;92847.84;5111064;27;20220;-71
2023/04/10 02:22:25;;;;;;;12.23;11.33;;;;;;;7.19;75.90;92841.53;5111334;28;20199;-70
2023/04/10 02:24:51;;;;;;;12.83;11.77;;;;;;;7.30;75.81;92845.75;5110987;28;20232;-71
2023/04/10 02:27:30;;;;;;;10.63;9.83;;;;;;;7.29;75.33;92828.59;5111484;28;20192;-71
2023/04/10 02:29:55;;;;;;;11.37;10.57;;;;;;;7.32;74.67;92812.53;5110302;28;20277;-70
2023/04/10 02:32:22;;;;;;;11.60;10.80;;;;;;;7.47;75.08;92835.94;5110167;28;20179;-71
2023/04/10 02:34:47;;;;;;;12.97;12.07;;;;;;;7.46;75.62;92826.59;5111029;27;20234;-69
2023/04/10 02:37:13;;;;;;;12.27;11.37;;;;;;;7.42;77.18;92822.19;5111533;28;20227;-70
2023/04/10 02:39:38;;;;;;;11.57;10.73;;;;;;;7.45;77.72;92821.66;5113102;27;20326;-71
2023/04/10 02:42:03;;;;;;;12.83;11.73;;;;;;;7.00;78.40;92780.72;5110859;28;20187;-71
2023/04/10 02:44:29;;;;;;;11.93;11.03;;;;;;;7.30;77.18;92804.19;5111375;28;20222;-71
2023/04/10 02:46:54;;;;;;;12.37;11.57;;;;;;;7.30;76.68;92814.56;5112057;28;20239;-71
2023/04/10 02:49:20;;;;;;;11.57;10.67;;;;;;;7.39;75.53;92807.09;5110690;28;20222;-71
2023/04/10 02:51:45;;;;;;;11.07;10.27;;;;;;;7.43;75.30;92808.94;5113651;28;20184;-69
2023/04/10 02:54:11;;;;;;;11.93;11.13;;;;;;;7.44;76.54;92804.53;5111625;28;20184;-71
2023/04/10 02:56:36;;;;;;;11.57;10.77;;;;;;;7.45;76.54;92800.88;5092005;28;20220;-71
2023/04/10 02:59:02;;;;;;;11.93;11.07;;;;;;;7.48;76.69;92803.75;5092772;28;20192;-71
2023/04/10 03:01:27;;;;;;;12.57;11.67;;;;;;;7.44;77.10;92805.28;5108265;28;20246;-71
2023/04/10 03:03:53;;;;;;;12.23;11.43;;;;;;;7.40;77.59;92803.47;5110934;28;20214;-70
2023/04/10 03:06:18;;;;;;;12.07;11.23;;;;;;;7.38;77.53;92800.31;5110729;28;20319;-70
2023/04/10 03:08:43;;;;;;;12.00;11.03;;;;;;;7.46;76.86;92797.25;5112527;28;20718;-70
2023/04/10 03:11:09;;;;;;;12.80;11.73;;;;;;;7.38;77.09;92803.72;5110796;28;20295;-71
2023/04/10 03:13:34;;;;;;;12.00;10.93;;;;;;;7.38;75.95;92803.72;5110858;28;20196;-71
2023/04/10 03:16:00;;;;;;;11.17;10.37;;;;;;;7.40;75.51;92798.25;5111015;28;20230;-70
2023/04/10 03:18:25;;;;;;;12.67;11.80;;;;;;;7.43;76.18;92808.16;5112506;28;20857;-71
2023/04/10 03:20:51;;;;;;;11.83;11.10;;;;;;;7.33;75.42;92814.06;5112923;28;20228;-71
2023/04/10 03:23:16;;;;;;;12.03;11.13;;;;;;;7.19;75.16;92792.19;5111488;28;20188;-71
2023/04/10 03:25:42;;;;;;;13.53;12.60;;;;;;;7.23;76.67;92801.06;5110391;28;20227;-71
2023/04/10 03:28:08;;;;;;;13.00;12.10;;;;;;;7.31;76.24;92787.59;5110493;28;20199;-70
2023/04/10 03:30:35;;;;;;;13.37;12.20;;;;;;;7.31;74.90;92792.78;5111423;28;20222;-71
2023/04/10 03:33:01;;;;;;;13.00;12.00;;;;;;;7.38;74.98;92801.13;5110657;28;20207;-71
2023/04/10 03:35:26;;;;;;;11.40;10.53;;;;;;;7.21;75.59;92795.34;5110033;28;20224;-71
2023/04/10 03:37:52;;;;;;;11.43;10.60;;;;;;;7.26;75.10;92802.34;5110869;28;20238;-71
2023/04/10 03:40:17;;;;;;;11.50;10.70;;;;;;;7.31;74.54;92805.78;5109966;28;20231;-71
2023/04/10 03:42:43;;;;;;;12.43;11.20;;;;;;;7.25;74.67;92791.22;5111613;28;20180;-71
2023/04/10 03:45:09;;;;;;;11.07;10.27;;;;;;;7.19;75.46;92810.38;5110020;28;20239;-71
2023/04/10 03:47:34;;;;;;;11.27;10.57;;;;;;;6.76;76.90;92768.34;5110496;28;20206;-71
2023/04/10 03:50:00;;;;;;;12.63;11.63;;;;;;;6.99;76.71;92801.72;5109453;28;20243;-72
2023/04/10 03:52:26;;;;;;;11.63;10.67;;;;;;;6.98;76.79;92800.94;5110248;28;20243;-73
2023/04/10 03:54:53;;;;;;;12.17;11.27;;;;;;;6.98;77.73;92810.53;5109441;28;20219;-72
2023/04/10 03:57:19;;;;;;;11.27;10.57;;;;;;;7.04;78.11;92815.50;5109034;28;20229;-71
2023/04/10 03:59:45;;;;;;;11.90;11.20;;;;;;;6.93;78.74;92819.06;5109716;28;20231;-71
2023/04/10 04:02:11;;;;;;;12.97;11.93;;;;;;;6.95;79.11;92814.41;5110648;28;20219;-72
2023/04/10 04:04:36;;;;;;;12.67;11.67;;;;;;;6.94;79.08;92820.63;5110563;28;20176;-72
2023/04/10 04:07:02;;;;;;;12.80;11.90;;;;;;;7.04;79.00;92810.31;5110040;28;20263;-72
2023/04/10 04:09:27;;;;;;;12.73;11.83;;;;;;;7.01;79.71;92812.63;5110285;28;20184;-71
2023/04/10 04:11:52;;;;;;;12.60;11.70;;;;;;;7.10;79.17;92829.28;5111766;28;20183;-72
2023/04/10 04:14:18;;;;;;;13.07;12.00;;;;;;;7.16;79.10;92834.25;5109834;28;20188;-71
2023/04/10 04:16:43;;;;;;;13.70;12.70;;;;;;;7.22;78.70;92833.22;5110377;28;20212;-74
2023/04/10 04:19:08;;;;;;;14.77;13.47;;;;;;;7.22;78.78;92835.81;5109934;28;20205;-71
2023/04/10 04:21:34;;;;;;;15.07;13.50;;;;;;;7.26;78.93;92833.50;5110590;28;20267;-72
2023/04/10 04:24:00;;;;;;;15.20;13.80;;;;;;;7.29;77.94;92823.41;5109999;28;20191;-74
2023/04/10 04:26:25;;;;;;;16.13;14.57;;;;;;;7.39;76.74;92839.03;5107328;28;20233;-70
2023/04/10 04:28:51;;;;;;;15.07;13.50;;;;;;;7.60;75.67;92838.09;5107482;28;20176;-70
2023/04/10 04:31:16;;;;;;;13.87;12.77;;;;;;;7.49;75.77;92818.31;5108027;28;20310;-70
2023/04/10 04:33:42;;;;;;;12.80;12.00;;;;;;;7.72;75.70;92843.84;5108968;28;20176;-68
2023/04/10 04:36:07;;;;;;;13.20;12.10;;;;;;;7.87;74.76;92846.50;5107867;28;20235;-66
2023/04/10 04:38:32;;;;;;;12.47;11.60;;;;;;;8.01;73.82;92842.38;5111832;28;20183;-69
2023/04/10 04:40:58;;;;;;;13.37;12.47;;;;;;;8.21;73.18;92849.44;5113933;28;20223;-70
2023/04/10 04:43:23;;;;;;;12.93;11.93;;;;;;;8.01;73.60;92826.78;5113759;28;20183;-70
2023/04/10 04:45:49;;;;;;;12.63;11.63;;;;;;;8.37;73.00;92845.84;5112477;28;20243;-71
2023/04/10 04:48:14;;;;;;;14.03;13.07;;;;;;;8.50;71.53;92849.75;5113416;28;20195;-71
2023/04/10 04:50:40;;;;;;;13.00;12.00;;;;;;;8.61;70.95;92856.50;5112449;28;20239;-72
2023/04/10 04:53:06;;;;;;;13.77;12.73;;;;;;;8.45;70.48;92854.97;5113951;28;20188;-68
2023/04/10 04:55:32;;;;;;;12.80;11.70;;;;;;;8.39;71.01;92845.59;5109505;28;20249;-71
2023/04/10 04:57:57;;;;;;;12.67;11.77;;;;;;;8.38;71.30;92860.41;5113156;28;20220;-71
2023/04/10 05:00:22;;;;;;;12.17;11.23;;;;;;;8.38;71.93;92854.41;5112165;28;20250;-71
2023/04/10 05:02:48;;;;;;;12.47;11.57;;;;;;;8.41;71.63;92856.50;5113265;28;20203;-69
2023/04/10 05:05:13;;;;;;;13.13;12.03;;;;;;;8.63;70.52;92870.03;5110255;28;20224;-69
2023/04/10 05:07:39;;;;;;;12.73;11.70;;;;;;;8.50;70.61;92862.78;5112285;28;20281;-71
2023/04/10 05:10:05;;;;;;;14.30;13.00;;;;;;;8.64;70.51;92871.63;5110198;28;20231;-71
2023/04/10 05:12:30;;;;;;;14.33;13.17;;;;;;;8.55;70.51;92863.53;5109817;28;20169;-70
2023/04/10 05:14:56;;;;;;;12.90;11.93;;;;;;;8.69;69.65;92854.19;5110827;28;20220;-68
2023/04/10 05:17:21;;;;;;;12.23;11.40;;;;;;;8.90;69.94;92860.16;5110799;28;20294;-71
2023/04/10 05:19:47;;;;;;;13.60;12.47;;;;;;;8.86;71.25;92869.53;5112081;28;20261;-71
2023/04/10 05:22:12;;;;;;;14.17;12.97;;;;;;;8.92;73.26;92863.28;5111240;28;20188;-70
2023/04/10 05:24:37;;;;;;;13.47;12.33;;;;;;;9.02;72.68;92869.28;5110495;28;20234;-71
2023/04/10 05:27:03;;;;;;;14.33;13.13;;;;;;;9.12;72.67;92876.28;5111242;28;20192;-70
2023/04/10 05:29:28;;;;;;;13.13;12.07;;;;;;;8.85;73.24;92860.16;5111783;28;20214;-71
2023/04/10 05:31:53;;;;;;;13.90;12.80;;;;;;;8.90;74.96;92868.75;5112112;28;20267;-71
2023/04/10 05:34:19;;;;;;;14.37;13.13;;;;;;;8.94;74.50;92861.19;5109842;28;20724;-71
2023/04/10 05:36:44;;;;;;;14.90;13.60;;;;;;;9.33;71.96;92836.13;5111211;28;20215;-71
2023/04/10 05:39:10;;;;;;;14.10;12.80;;;;;;;9.30;72.00;92863.50;5110832;28;20188;-71
2023/04/10 05:41:35;;;;;;;15.17;13.67;;;;;;;9.44;72.98;92871.53;5109765;28;20243;-70
2023/04/10 05:44:00;;;;;;;14.37;13.27;;;;;;;9.69;80.15;92871.47;5111446;28;20196;-69
2023/04/10 05:46:26;;;;;;;14.77;13.47;;;;;;;9.62;73.05;92857.91;5109671;28;20266;-70
2023/04/10 05:48:52;;;;;;;15.33;13.93;;;;;;;9.68;72.77;92855.03;5109020;28;20199;-71
2023/04/10 05:51:17;;;;;;;15.90;14.43;;;;;;;9.68;71.40;92833.41;5110369;28;20224;-73
2023/04/10 05:53:42;;;;;;;15.47;14.10;;;;;;;9.73;71.30;92846.41;5112656;28;20241;-75
2023/04/10 05:56:08;;;;;;;15.60;14.23;;;;;;;10.16;73.87;92878.84;5110967;28;20229;-73
2023/04/10 05:58:33;;;;;;;15.23;13.93;;;;;;;10.49;70.15;92883.38;5112864;28;20256;-76
2023/04/10 06:00:59;;;;;;;15.77;14.27;;;;;;;10.52;68.58;92893.25;5111773;28;20244;-75
2023/04/10 06:03:26;;;;;;;16.13;14.70;;;;;;;10.29;68.08;92889.47;5112460;28;20215;-76
2023/04/10 06:05:52;;;;;;;14.73;13.23;;;;;;;9.98;69.11;92871.63;5112265;28;20228;-77
2023/04/10 06:08:18;;;;;;;16.17;14.57;;;;;;;9.80;69.91;92849.50;5112140;28;20180;-76
2023/04/10 06:10:45;;;;;;;17.03;15.50;;;;;;;10.25;70.01;92898.91;5112733;27;20224;-76
2023/04/10 06:13:11;;;;;;;14.90;13.60;;;;;;;10.13;68.22;92880.19;5111933;28;20193;-76
2023/04/10 06:15:36;;;;;;;15.17;13.93;;;;;;;9.92;68.42;92894.31;5110712;28;20250;-76
2023/04/10 06:18:01;;;;;;;16.23;14.83;;;;;;;9.69;69.43;92874.06;5110124;28;20255;-76
2023/04/10 06:20:27;;;;;;;15.87;14.53;;;;;;;9.41;71.17;92859.03;5109795;28;20317;-76
2023/04/10 06:22:52;;;;;;;14.67;13.57;;;;;;;9.56;71.51;92851.16;5112511;28;20177;-77
2023/04/10 06:25:18;;;;;;;16.30;14.93;;;;;;;9.99;70.39;92887.00;5110883;28;20232;-76
2023/04/10 06:27:43;;;;;;;15.60;14.20;;;;;;;10.16;67.70;92877.03;5111094;28;20194;-76
2023/04/10 06:30:10;;;;;;;16.23;14.83;;;;;;;10.08;67.97;92885.41;5111698;28;20232;-76
2023/04/10 06:32:35;;;;;;;15.03;13.57;;;;;;;9.86;69.12;92890.16;5113301;28;20209;-76
2023/04/10 06:35:01;;;;;;;15.83;14.53;;;;;;;9.41;70.85;92877.28;5111085;28;20227;-77
2023/04/10 06:37:30;;;;;;;16.73;15.20;;;;;;;9.64;69.39;92866.25;5112022;28;20216;-76
2023/04/10 06:40:07;;;;;;;15.23;13.73;;;;;;;9.95;69.42;92896.38;5111136;28;20227;-77
2023/04/10 06:42:33;;;;;;;17.20;15.50;;;;;;;9.80;68.55;92839.09;5111687;28;20184;-76
2023/04/10 06:44:59;;;;;;;15.87;14.27;;;;;;;9.82;68.40;92873.50;5111130;28;20291;-77
2023/04/10 06:47:24;;;;;;;18.27;16.57;;;;;;;9.46;70.96;92872.06;5113492;28;20200;-76
2023/04/10 06:49:50;;;;;;;16.07;14.70;;;;;;;9.38;71.99;92873.38;5111236;28;20264;-77
2023/04/10 06:52:16;;;;;;;16.93;15.10;;;;;;;9.54;71.10;92887.16;5113503;28;20192;-76
2023/04/10 06:54:41;;;;;;;17.17;15.53;;;;;;;9.72;70.38;92894.38;5111973;28;20237;-76
2023/04/10 06:57:07;;;;;;;17.37;15.67;;;;;;;9.78;69.82;92901.13;5111957;28;20222;-76
2023/04/10 06:59:34;;;;;;;15.80;14.23;;;;;;;9.71;68.38;92877.19;5110655;28;21168;-76
2023/04/10 07:02:00;;;;;;;16.40;15.00;;;;;;;9.90;67.67;92906.81;5110885;28;20266;-76
2023/04/10 07:04:25;;;;;;;16.07;14.57;;;;;;;9.86;68.29;92891.97;5112944;28;20181;-77
2023/04/10 07:06:51;;;;;;;16.43;14.97;;;;;;;10.03;68.52;92895.03;5112076;28;20188;-77
2023/04/10 07:09:16;;;;;;;17.23;15.73;;;;;;;10.00;67.71;92895.56;5111977;28;20264;-76
2023/04/10 07:11:42;;;;;;;17.37;14.80;;;;;;;9.82;68.24;92894.38;5109532;28;20228;-77
2023/04/10 07:14:07;;;;;;;16.97;15.50;;;;;;;9.87;67.56;92912.56;5110856;28;20228;-77
2023/04/10 07:16:32;;;;;;;17.17;15.37;;;;;;;9.64;68.80;92898.31;5112358;28;20212;-76
2023/04/10 07:18:58;;;;;;;17.13;15.50;;;;;;;9.90;68.81;92912.03;5111305;28;20251;-76
2023/04/10 07:21:23;;;;;;;17.83;16.13;;;;;;;9.83;67.49;92885.47;5110437;28;20207;-77
2023/04/10 07:23:49;;;;;;;16.80;15.30;;;;;;;9.90;67.53;92901.59;5109393;28;20252;-76
2023/04/10 07:26:15;;;;;;;17.37;15.50;;;;;;;9.79;68.32;92913.13;5108826;28;20254;-76
2023/04/10 07:28:40;;;;;;;16.53;15.10;;;;;;;9.70;68.75;92899.88;5109889;28;20176;-76
2023/04/10 07:31:07;;;;;;;18.53;16.80;;;;;;;9.59;69.77;92895.72;5110980;28;20219;-72
2023/04/10 07:33:32;;;;;;;19.37;17.47;;;;;;;9.50;71.76;92886.09;5112786;28;20242;-73
2023/04/10 07:35:58;;;;;;;17.67;15.90;;;;;;;9.64;68.42;92892.31;5111632;28;20208;-70
2023/04/10 07:38:24;;;;;;;17.23;15.63;;;;;;;9.56;69.72;92911.91;5110499;28;20275;-70
2023/04/10 07:40:55;;;;;;;18.03;14.87;;;;;;;9.69;70.23;92905.34;5109505;28;20239;-70
2023/04/10 07:43:20;;;;;;;17.07;15.33;;;;;;;9.39;70.14;92892.38;5103873;28;20192;-70
2023/04/10 07:45:46;;;;;;;17.77;15.83;;;;;;;9.77;68.49;92912.63;5109970;28;20233;-70
2023/04/10 07:48:11;;;;;;;17.43;15.63;;;;;;;9.95;67.90;92906.81;5106013;28;20211;-69
2023/04/10 07:50:37;;;;;;;20.97;18.73;;;;;;;10.27;67.69;92912.47;5106526;28;20228;-70
2023/04/10 07:53:06;;;;;;;17.17;15.67;;;;;;;10.54;67.40;92910.19;5109749;28;20586;-69
2023/04/10 07:55:36;;;;;;;17.60;15.97;;;;;;;10.99;65.27;92915.13;5108391;28;20241;-69
2023/04/10 07:58:01;;;;;;;19.17;15.47;;;;;;;11.11;65.66;92922.63;5107452;28;20314;-70
2023/04/10 08:00:26;;;;;;;16.97;15.27;;;;;;;11.24;64.62;92914.91;5111706;28;21015;-70
2023/04/10 08:02:52;;;;;;;17.70;15.90;;;;;;;10.71;64.62;92865.44;5107597;28;20192;-71
2023/04/10 08:05:17;;;;;;;17.50;15.70;;;;;;;10.73;66.00;92918.97;5108744;28;20240;-71
2023/04/10 08:07:42;;;;;;;18.73;16.83;;;;;;;10.70;66.83;92911.69;5108849;28;20225;-70
2023/04/10 08:10:08;;;;;;;16.70;15.00;;;;;;;10.74;65.20;92912.69;5108421;28;20228;-70
2023/04/10 08:12:34;;;;;;;17.07;15.47;;;;;;;10.81;64.99;92915.00;5108020;28;20184;-70
2023/04/10 08:15:00;;;;;;;16.40;14.70;;;;;;;10.85;65.15;92918.59;5106527;28;20245;-70
2023/04/10 08:17:25;;;;;;;16.63;14.03;;;;;;;10.82;64.51;92921.75;5108768;28;20201;-71
2023/04/10 08:19:50;;;;;;;16.57;14.87;;;;;;;10.45;64.38;92896.16;5107162;28;20244;-70
2023/04/10 08:22:16;;;;;;;17.97;16.23;;;;;;;10.62;65.03;92909.63;5109890;28;20276;-70
2023/04/10 08:24:41;;;;;;;19.73;17.63;;;;;;;10.84;65.63;92922.28;5108226;28;20223;-71
2023/04/10 08:27:06;;;;;;;16.80;15.00;;;;;;;10.69;65.35;92904.88;5108947;28;20207;-70
2023/04/10 08:29:32;;;;;;;17.20;15.37;;;;;;;11.08;64.72;92913.47;5108408;28;20214;-70
2023/04/10 08:31:59;;;;;;;16.87;15.17;;;;;;;11.01;64.14;92902.56;5108784;28;20201;-69
2023/04/10 08:34:25;;;;;;;16.77;15.17;;;;;;;10.88;65.02;92911.00;5106363;28;20192;-69
2023/04/10 08:36:51;;;;;;;17.67;15.97;;;;;;;10.99;64.35;92916.94;5107269;28;20218;-70
2023/04/10 08:39:17;;;;;;;15.43;14.13;;;;;;;11.09;63.81;92920.28;5108624;28;20186;-71
2023/04/10 08:41:42;;;;;;;17.33;15.77;;;;;;;11.15;64.58;92906.13;5106169;28;20272;-70
2023/04/10 08:44:08;;;;;;;16.97;15.37;;;;;;;11.22;65.16;92913.63;5109033;28;20196;-69
2023/04/10 08:46:35;;;;;;;16.93;15.37;;;;;;;10.82;64.85;92901.66;5107634;28;20236;-70
2023/04/10 08:49:03;;;;;;;18.97;16.27;;;;;;;11.37;63.25;92916.13;5108210;28;20199;-70
2023/04/10 08:51:45;;;;;;;19.27;17.13;;;;;;;11.11;65.35;92914.78;5107380;28;20221;-71
2023/04/10 08:54:17;;;;;;;17.50;15.73;;;;;;;11.23;63.03;92915.97;5106669;28;20188;-70
2023/04/10 08:56:49;;;;;;;17.93;16.13;;;;;;;10.79;65.42;92910.03;5106153;28;20390;-68
2023/04/10 08:59:15;;;;;;;17.90;16.30;;;;;;;10.80;66.37;92911.59;5107323;28;20194;-70
2023/04/10 09:01:40;;;;;;;20.50;15.80;;;;;;;10.75;65.68;92890.75;5107283;28;20258;-70
2023/04/10 09:04:06;;;;;;;17.73;15.33;;;;;;;10.76;64.54;92897.53;5109062;28;20253;-69
2023/04/10 09:06:31;;;;;;;17.17;15.47;;;;;;;10.41;65.21;92904.81;5107962;28;20228;-70
2023/04/10 09:08:58;;;;;;;18.53;16.37;;;;;;;10.37;66.89;92901.16;5107230;28;20181;-70
2023/04/10 09:11:59;;;;;;;17.17;15.57;;;;;;;10.57;66.16;92904.44;5107161;28;20217;-70
2023/04/10 09:14:30;;;;;;;16.77;15.17;;;;;;;10.86;65.83;92896.69;5106912;28;20186;-71
2023/04/10 09:17:24;;;;;;;16.50;14.90;;;;;;;10.94;66.57;92907.31;5108088;28;20225;-70
2023/04/10 09:19:53;;;;;;;17.20;15.73;;;;;;;11.14;65.46;92895.94;5106572;28;20237;-70
2023/04/10 09:22:28;;;;;;;17.07;15.57;;;;;;;11.15;64.47;92877.38;5109892;28;20190;-69
2023/04/10 09:24:54;;;;;;;17.77;15.87;;;;;;;11.23;64.54;92891.66;5109191;28;20231;-71
2023/04/10 09:27:37;;;;;;;18.20;16.10;;;;;;;11.38;65.51;92897.53;5112386;28;20199;-70
2023/04/10 09:30:04;;;;;;;17.10;15.47;;;;;;;11.42;63.44;92881.31;5109674;28;20223;-68
2023/04/10 09:32:40;;;;;;;16.13;14.73;;;;;;;11.43;62.51;92882.84;5111848;28;20186;-69
2023/04/10 09:35:07;;;;;;;17.67;16.13;;;;;;;11.16;62.89;92878.13;5109876;28;20228;-71
2023/04/10 09:37:36;;;;;;;16.17;14.67;;;;;;;10.99;64.87;92903.88;5113822;27;20205;-71
2023/04/10 09:40:03;;;;;;;15.97;14.57;;;;;;;11.01;62.65;92888.72;5114147;28;20235;-72
2023/04/10 09:42:36;;;;;;;16.60;15.20;;;;;;;10.94;64.62;92881.19;5111608;28;20190;-69
2023/04/10 09:45:02;;;;;;;16.87;15.30;;;;;;;11.12;63.67;92893.59;5111299;28;20223;-69
2023/04/10 09:47:29;;;;;;;15.93;14.60;;;;;;;10.95;62.50;92872.31;5112744;28;20200;-69
2023/04/10 09:49:56;;;;;;;16.20;14.63;;;;;;;10.92;63.53;92878.09;5112142;28;20228;-69
2023/04/10 09:52:23;;;;;;;17.57;15.97;;;;;;;11.09;64.53;92888.13;5112515;28;20260;-69
2023/04/10 09:54:49;;;;;;;17.20;15.60;;;;;;;10.97;64.27;92880.63;5111845;28;20236;-69
2023/04/10 09:57:19;;;;;;;16.70;15.10;;;;;;;10.88;64.70;92878.91;5112800;28;20205;-69
2023/04/10 09:59:53;;;;;;;16.93;15.47;;;;;;;11.21;63.74;92881.50;5111808;28;20832;-69
2023/04/10 10:02:21;;;;;;;17.23;15.57;;;;;;;11.57;64.03;92881.94;5111336;28;21863;-69
2023/04/10 10:04:47;;;;;;;16.67;15.20;;;;;;;11.91;64.55;92868.75;5112473;28;20296;-68
2023/04/10 10:07:17;;;;;;;16.57;14.90;;;;;;;12.17;62.65;92876.03;5111534;28;20199;-69
2023/04/10 10:09:44;;;;;;;15.67;14.17;;;;;;;12.26;61.77;92857.88;5112829;28;20239;-70
2023/04/10 10:12:16;;;;;;;15.83;14.43;;;;;;;12.04;61.23;92875.94;5113580;28;20189;-69
2023/04/10 10:15:08;;;;;;;16.00;14.60;;;;;;;11.47;64.23;92874.19;5112476;28;20230;-69
2023/04/10 10:17:44;;;;;;;15.00;13.60;;;;;;;11.86;63.16;92850.53;5099901;28;20217;-69
2023/04/10 10:20:12;;;;;;;17.50;15.30;;;;;;;11.68;62.62;92859.09;5111255;28;20226;-69
2023/04/10 10:22:37;;;;;;;16.23;14.63;;;;;;;12.03;61.06;92869.16;5112937;28;20179;-70
2023/04/10 10:25:03;;;;;;;16.13;14.57;;;;;;;11.57;62.52;92860.22;5111669;28;20302;-70
2023/04/10 10:27:31;;;;;;;16.13;14.80;;;;;;;12.12;59.16;92868.25;5112312;28;20191;-70
2023/04/10 10:29:59;;;;;;;14.33;13.23;;;;;;;11.75;57.88;92838.63;5111647;28;20227;-69
2023/04/10 10:32:26;;;;;;;13.33;12.33;;;;;;;12.34;57.74;92858.00;5111926;28;20188;-69
2023/04/10 10:34:52;;;;;;;14.20;13.03;;;;;;;12.88;55.64;92852.25;5112080;28;20235;-69
2023/04/10 10:37:20;;;;;;;15.13;13.93;;;;;;;13.13;57.81;92853.69;5110128;28;20225;-70
2023/04/10 10:40:07;;;;;;;14.83;13.63;;;;;;;13.39;54.12;92865.31;5111818;28;20332;-69
2023/04/10 10:42:52;;;;;;;14.60;13.50;;;;;;;13.49;53.80;92852.03;5111092;28;20184;-69
2023/04/10 10:45:23;;;;;;;13.93;12.73;;;;;;;13.16;53.24;92821.66;5111909;28;20274;-69
2023/04/10 10:47:50;;;;;;;14.90;13.37;;;;;;;13.17;53.08;92839.72;5111165;28;20187;-69
2023/04/10 10:50:16;;;;;;;15.63;14.27;;;;;;;12.69;54.40;92822.66;5111052;28;20244;-69
2023/04/10 10:52:48;;;;;;;15.03;13.83;;;;;;;12.58;56.83;92826.50;5111087;28;20214;-69
2023/04/10 10:55:23;;;;;;;15.90;14.60;;;;;;;12.57;57.14;92822.34;5110818;28;20235;-69
2023/04/10 10:57:57;;;;;;;14.37;13.27;;;;;;;12.86;53.25;92809.81;5110128;28;20271;-70
2023/04/10 11:00:24;;;;;;;15.63;14.17;;;;;;;12.94;53.03;92819.66;5108966;28;20240;-70
2023/04/10 11:03:09;;;;;;;14.00;12.70;;;;;;;12.88;53.35;92820.81;5110837;28;20191;-69
2023/04/10 11:05:57;;;;;;;14.70;13.40;;;;;;;12.73;52.92;92808.72;5110047;28;20225;-69
2023/04/10 11:08:31;;;;;;;14.50;13.30;;;;;;;12.74;53.40;92812.13;5109206;28;20207;-69
2023/04/10 11:11:07;;;;;;;14.50;13.20;;;;;;;12.87;53.49;92803.53;5110759;28;20230;-69
2023/04/10 11:13:55;;;;;;;15.37;14.07;;;;;;;13.00;51.74;92810.66;5110862;28;20184;-69
2023/04/10 11:16:22;;;;;;;14.73;13.43;;;;;;;13.13;51.95;92803.91;5099820;28;20235;-69
2023/04/10 11:18:47;;;;;;;14.47;13.27;;;;;;;12.82;52.76;92801.00;5112251;28;20194;-69
2023/04/10 11:21:13;;;;;;;16.47;15.07;;;;;;;12.70;54.30;92784.94;5111946;27;20236;-70
2023/04/10 11:23:58;;;;;;;14.97;13.70;;;;;;;11.81;55.88;92780.75;5111152;28;20251;-68
2023/04/10 11:26:39;;;;;;;14.43;13.13;;;;;;;11.87;55.54;92784.06;5109840;28;20232;-69